createdAt,value
2022-09-01T00:01:56.064Z,95300.81
2022-09-01T00:04:44.438Z,95298.47
2022-09-01T00:07:30.835Z,95300.03
2022-09-01T00:10:17.037Z,95305.16
2022-09-01T00:13:04.465Z,95300.81
2022-09-01T00:16:58.360Z,95311.84
2022-09-01T00:20:20.626Z,95311.03
2022-09-01T00:23:07.314Z,95303.97
2022-09-01T00:25:54.105Z,95287.84
2022-09-01T00:28:43.455Z,95287.44
2022-09-01T00:31:29.506Z,95294.53
2022-09-01T00:34:16.718Z,95306.34
2022-09-01T00:37:02.872Z,95300.03
2022-09-01T00:39:48.835Z,95307.91
2022-09-01T00:42:34.940Z,95309.09
2022-09-01T00:45:22.722Z,95311.03
2022-09-01T00:48:09.606Z,95312.25
2022-09-01T00:50:57.002Z,95309.50
2022-09-01T00:53:44.005Z,95309.50
2022-09-01T00:56:30.938Z,95304.00
2022-09-01T00:59:18.079Z,95304.00
2022-09-01T01:02:03.790Z,95311.03
2022-09-01T01:04:49.710Z,95317.34
2022-09-01T01:07:38.950Z,95310.25
2022-09-01T01:10:26.478Z,95301.56
2022-09-01T01:13:15.960Z,95307.88
2022-09-01T01:16:06.096Z,95301.56
2022-09-01T01:18:53.317Z,95305.91
2022-09-01T01:22:02.004Z,95301.16
2022-09-01T01:24:49.522Z,95298.00
2022-09-01T01:27:39.976Z,95298.41
2022-09-01T01:30:32.452Z,95307.84
2022-09-01T01:33:37.249Z,95298.34
2022-09-01T01:36:36.379Z,95297.19
2022-09-01T01:39:28.851Z,95294.44
2022-09-01T01:42:14.859Z,95294.44
2022-09-01T01:45:00.951Z,95294.44
2022-09-01T01:47:56.478Z,95304.25
2022-09-01T01:50:45.350Z,95296.81
2022-09-01T01:53:32.084Z,95288.94
2022-09-01T01:56:19.514Z,95289.72
2022-09-01T01:59:05.398Z,95298.34
2022-09-01T02:01:54.056Z,95301.50
2022-09-01T02:04:41.766Z,95301.91
2022-09-01T02:07:30.203Z,95292.81
2022-09-01T02:10:19.286Z,95295.97
2022-09-01T02:13:07.129Z,95293.63
2022-09-01T02:15:55.090Z,95297.56
2022-09-01T02:18:44.493Z,95294.38
2022-09-01T02:21:30.599Z,95288.91
2022-09-01T02:24:16.579Z,95289.66
2022-09-01T02:27:03.011Z,95292.03
2022-09-01T02:29:53.895Z,95290.84
2022-09-01T02:32:41.906Z,95289.66
2022-09-01T02:35:38.173Z,95292.81
2022-09-01T02:38:29.226Z,95290.47
2022-09-01T02:41:20.112Z,95292.44
2022-09-01T02:44:11.860Z,95287.31
2022-09-01T02:46:58.903Z,95284.16
2022-09-01T02:49:46.885Z,95282.56
2022-09-01T02:52:38.336Z,95276.31
2022-09-01T02:55:24.747Z,95280.22
2022-09-01T02:58:13.510Z,95273.16
2022-09-01T03:01:01.620Z,95280.22
2022-09-01T03:03:50.878Z,95272.31
2022-09-01T03:06:37.830Z,95282.13
2022-09-01T03:09:24.216Z,95286.47
2022-09-01T03:12:10.755Z,95278.59
2022-09-01T03:15:01.884Z,95278.19
2022-09-01T03:17:52.720Z,95286.44
2022-09-01T03:20:43.903Z,95284.47
2022-09-01T03:23:31.419Z,95280.56
2022-09-01T03:26:21.294Z,95283.31
2022-09-01T03:29:12.159Z,95295.09
2022-09-01T03:32:10.794Z,95282.53
2022-09-01T03:35:22.030Z,95292.69
2022-09-01T03:38:12.983Z,95291.13
2022-09-01T03:41:02.317Z,95284.03
2022-09-01T03:43:49.478Z,95288.38
2022-09-01T03:46:37.163Z,95289.56
2022-09-01T03:49:28.623Z,95272.56
2022-09-01T03:52:17.434Z,95279.72
2022-09-01T03:55:03.568Z,95280.88
2022-09-01T03:57:54.524Z,95283.22
2022-09-01T04:00:45.471Z,95282.47
2022-09-01T04:03:39.481Z,95286.78
2022-09-01T04:06:26.687Z,95292.28
2022-09-01T04:09:13.156Z,95290.63
2022-09-01T04:12:06.495Z,95291.06
2022-09-01T04:14:53.131Z,95286.28
2022-09-01T04:17:57.696Z,95293.38
2022-09-01T04:20:49.738Z,95300.06
2022-09-01T04:23:37.248Z,95295.72
2022-09-01T04:26:28.216Z,95293.34
2022-09-01T04:29:14.631Z,95296.88
2022-09-01T04:32:04.101Z,95302.38
2022-09-01T04:34:51.866Z,95301.16
2022-09-01T04:37:37.633Z,95298.00
2022-09-01T04:40:27.490Z,95304.28
2022-09-01T04:43:14.034Z,95303.50
2022-09-01T04:46:00.673Z,95307.81
2022-09-01T04:48:48.004Z,95301.13
2022-09-01T04:51:41.882Z,95301.09
2022-09-01T04:54:35.109Z,95294.75
2022-09-01T04:57:22.185Z,95290.84
2022-09-01T05:00:23.446Z,95279.44
2022-09-01T05:03:10.358Z,95285.34
2022-09-01T05:06:20.543Z,95282.13
2022-09-01T05:09:12.023Z,95284.88
2022-09-01T05:12:22.149Z,95274.25
2022-09-01T05:15:09.651Z,95267.97
2022-09-01T05:17:56.335Z,95264.06
2022-09-01T05:20:43.354Z,95267.22
2022-09-01T05:23:29.925Z,95259.00
2022-09-01T05:26:19.664Z,95265.72
2022-09-01T05:29:10.914Z,95268.50
2022-09-01T05:31:58.886Z,95268.91
2022-09-01T05:34:46.246Z,95257.09
2022-09-01T05:37:34.095Z,95265.38
2022-09-01T05:40:21.578Z,95257.94
2022-09-01T05:43:12.576Z,95266.63
2022-09-01T05:46:06.728Z,95260.34
2022-09-01T05:48:57.628Z,95267.41
2022-09-01T05:51:50.809Z,95263.50
2022-09-01T05:54:40.305Z,95268.19
2022-09-01T05:57:35.135Z,95261.53
2022-09-01T06:00:25.242Z,95256.41
2022-09-01T06:03:11.847Z,95269.78
2022-09-01T06:06:08.901Z,95271.34
2022-09-01T06:08:59.663Z,95267.41
2022-09-01T06:11:47.171Z,95265.84
2022-09-01T06:14:33.318Z,95257.97
2022-09-01T06:17:25.300Z,95271.34
2022-09-01T06:20:14.368Z,95260.28
2022-09-01T06:23:02.615Z,95257.97
2022-09-01T06:25:48.677Z,95270.94
2022-09-01T06:28:41.408Z,95264.66
2022-09-01T06:31:34.122Z,95252.47
2022-09-01T06:34:26.374Z,95250.88
2022-09-01T06:37:13.426Z,95250.13
2022-09-01T06:40:03.652Z,95247.00
2022-09-01T06:42:52.522Z,95245.44
2022-09-01T06:45:49.826Z,95247.81
2022-09-01T06:48:47.462Z,95250.16
2022-09-01T06:51:34.183Z,95247.81
2022-09-01T06:54:21.901Z,95258.47
2022-09-01T07:00:20.270Z,95250.28
2022-09-01T07:03:10.015Z,95255.78
2022-09-01T07:09:49.747Z,95257.44
2022-09-01T07:13:08.947Z,95250.38
2022-09-01T07:19:06.651Z,95249.22
2022-09-01T07:22:35.138Z,95248.44
2022-09-01T07:25:11.883Z,95243.38
2022-09-01T07:34:38.667Z,95235.56
2022-09-01T07:42:30.580Z,95246.13
2022-09-01T07:44:15.040Z,95228.34
2022-09-01T07:47:20.529Z,95246.44
2022-09-01T07:53:36.449Z,95243.28
2022-09-01T07:56:25.310Z,95244.84
2022-09-01T07:59:15.167Z,95245.63
2022-09-01T08:02:22.633Z,95236.97
2022-09-01T08:05:16.086Z,95238.63
2022-09-01T08:08:03.133Z,95231.53
2022-09-01T08:10:51.982Z,95220.53
2022-09-01T08:13:41.628Z,95230.78
2022-09-01T08:16:39.347Z,95237.88
2022-09-01T08:19:31.181Z,95237.47
2022-09-01T08:22:29.257Z,95237.88
2022-09-01T08:25:25.099Z,95239.47
2022-09-01T08:28:14.899Z,95235.97
2022-09-01T08:31:11.692Z,95242.69
2022-09-01T08:34:00.147Z,95237.19
2022-09-01T08:36:47.691Z,95237.22
2022-09-01T08:39:34.216Z,95219.13
2022-09-01T08:43:01.935Z,95231.75
2022-09-01T08:45:56.377Z,95222.28
2022-09-01T08:49:30.718Z,95226.66
2022-09-01T08:52:45.922Z,95225.47
2022-09-01T08:55:38.611Z,95213.28
2022-09-01T08:58:31.991Z,95219.97
2022-09-01T10:13:51.357Z,95155.09
2022-09-01T10:16:42.057Z,95150.31
2022-09-01T10:19:35.536Z,95149.47
2022-09-01T10:22:24.853Z,95137.16
2022-09-01T10:25:16.677Z,95147.34
2022-09-01T10:28:20.878Z,95138.25
2022-09-01T10:31:09.196Z,95141.72
2022-09-01T10:33:58.639Z,95134.94
2022-09-01T10:36:47.079Z,95140.41
2022-09-01T10:39:36.777Z,95122.25
2022-09-01T10:42:31.086Z,95121.41
2022-09-01T10:45:32.367Z,95123.31
2022-09-01T10:48:30.573Z,95129.16
2022-09-01T10:51:21.167Z,95124.75
2022-09-01T10:54:07.793Z,95121.97
2022-09-01T10:56:54.087Z,95117.16
2022-09-01T10:59:44.925Z,95110.75
2022-09-01T11:02:42.451Z,95102.81
2022-09-01T11:06:10.998Z,95118.50
2022-09-01T11:08:58.679Z,95116.13
2022-09-01T11:11:56.876Z,95108.16
2022-09-01T11:14:54.232Z,95115.19
2022-09-01T11:17:56.730Z,95104.13
2022-09-01T11:20:45.523Z,95099.41
2022-09-01T11:23:31.692Z,95108.00
2022-09-01T11:26:32.827Z,95108.69
2022-09-01T11:29:57.542Z,95107.44
2022-09-01T11:32:47.169Z,95099.94
2022-09-01T11:35:33.669Z,95094.41
2022-09-01T11:38:20.161Z,95091.91
2022-09-01T11:41:06.483Z,95093.34
2022-09-01T11:43:57.987Z,95090.91
2022-09-01T11:46:44.343Z,95092.41
2022-09-01T11:49:48.548Z,95086.56
2022-09-01T11:52:36.325Z,95078.31
2022-09-01T11:55:32.172Z,95082.53
2022-09-01T11:58:33.620Z,95078.78
2022-09-01T12:01:23.461Z,95083.09
2022-09-01T12:04:25.292Z,95077.78
2022-09-01T12:07:14.966Z,95068.66
2022-09-01T12:10:00.909Z,95072.25
2022-09-01T12:12:48.389Z,95057.66
2022-09-01T12:15:36.617Z,95058.25
2022-09-01T12:18:27.937Z,95050.25
2022-09-01T12:21:25.253Z,95050.25
2022-09-01T12:24:23.655Z,95032.78
2022-09-01T12:27:09.910Z,95028.03
2022-09-01T12:29:56.748Z,95026.44
2022-09-01T12:32:42.817Z,95030.25
2022-09-01T12:35:29.269Z,95027.16
2022-09-01T12:38:21.281Z,95021.59
2022-09-01T12:41:35.223Z,95024.03
2022-09-01T12:44:37.266Z,95028.03
2022-09-01T12:47:48.501Z,95030.44
2022-09-01T12:50:37.692Z,95024.19
2022-09-01T12:53:26.069Z,95018.28
2022-09-01T12:56:21.796Z,95013.06
2022-09-01T12:59:14.190Z,95013.41
2022-09-01T13:02:40.816Z,95005.44
2022-09-01T13:05:38.724Z,95000.03
2022-09-01T13:08:33.294Z,94996.38
2022-09-01T13:12:04.434Z,94994.84
2022-09-01T13:14:32.603Z,94995.69
2022-09-01T13:17:20.937Z,94994.91
2022-09-01T13:21:27.675Z,95001.63
2022-09-01T13:24:14.687Z,95008.38
2022-09-01T13:30:09.643Z,95001.94
2022-09-01T13:36:42.468Z,95004.28
2022-09-01T13:39:18.699Z,94993.09
2022-09-01T13:42:05.075Z,94998.59
2022-09-01T13:44:55.203Z,94991.28
2022-09-01T13:54:11.825Z,94992.06
2022-09-01T13:56:57.610Z,94988.91
2022-09-01T13:59:43.581Z,94991.19
2022-09-01T14:02:29.930Z,94987.19
2022-09-01T14:05:20.675Z,94984.75
2022-09-01T14:08:07.892Z,94980.06
2022-09-01T14:10:54.243Z,94970.59
2022-09-01T14:13:40.246Z,94967.38
2022-09-01T14:16:26.345Z,94964.06
2022-09-01T14:19:13.464Z,94961.63
2022-09-01T14:21:59.260Z,94955.78
2022-09-01T14:24:45.235Z,94945.09
2022-09-01T14:27:31.656Z,94945.94
2022-09-01T14:30:21.373Z,94951.44
2022-09-01T14:33:07.895Z,94945.13
2022-09-01T14:35:54.406Z,94939.03
2022-09-01T14:38:40.138Z,94933.47
2022-09-01T14:41:27.164Z,94931.78
2022-09-01T14:44:13.246Z,94943.00
2022-09-01T14:46:59.098Z,94942.97
2022-09-01T14:49:45.427Z,94933.78
2022-09-01T14:52:31.591Z,94941.94
2022-09-01T14:55:17.715Z,94932.78
2022-09-01T14:58:07.946Z,94932.63
2022-09-01T15:01:07.370Z,94923.88
2022-09-01T15:04:11.566Z,94931.25
2022-09-01T15:06:57.341Z,94940.50
2022-09-01T15:09:43.109Z,94952.94
2022-09-01T15:12:31.126Z,94953.13
2022-09-01T15:15:17.850Z,94953.31
2022-09-01T15:18:04.088Z,94947.56
2022-09-01T15:20:51.231Z,94946.59
2022-09-01T15:23:37.322Z,94971.34
2022-09-01T15:26:23.273Z,95002.38
2022-09-01T15:29:11.979Z,95005.22
2022-09-01T15:31:57.870Z,95004.25
2022-09-01T15:34:44.165Z,95100.94
2022-09-01T15:37:30.251Z,95089.63
2022-09-01T15:40:17.543Z,95085.78
2022-09-01T15:43:05.620Z,95015.41
2022-09-01T15:45:51.440Z,95040.19
2022-09-01T15:48:38.194Z,95023.81
2022-09-01T15:51:23.894Z,95016.78
2022-09-01T15:54:17.329Z,94999.50
2022-09-01T15:57:04.098Z,95011.31
2022-09-01T15:59:50.174Z,95035.31
2022-09-01T16:02:35.902Z,95047.56
2022-09-01T16:05:21.825Z,95064.47
2022-09-01T16:08:09.779Z,95060.94
2022-09-01T16:10:56.182Z,95053.06
2022-09-01T16:13:43.292Z,95060.53
2022-09-01T16:16:42.325Z,95059.75
2022-09-01T16:20:05.726Z,95052.69
2022-09-01T16:22:57.710Z,95054.63
2022-09-01T16:25:46.237Z,95060.91
2022-09-01T16:28:36.661Z,95054.63
2022-09-01T16:31:30.160Z,95046.72
2022-09-01T16:34:19.662Z,95049.06
2022-09-01T16:37:19.979Z,95054.56
2022-09-01T16:40:10.207Z,95060.06
2022-09-01T16:43:02.924Z,95067.94
2022-09-01T16:46:07.604Z,95062.41
2022-09-01T16:48:57.027Z,95068.72
2022-09-01T16:51:53.135Z,95060.06
2022-09-01T16:55:16.539Z,95055.34
2022-09-01T16:58:25.114Z,95050.63
2022-09-01T17:01:20.366Z,95067.97
2022-09-01T17:04:06.250Z,95078.22
2022-09-01T17:07:00.965Z,95080.22
2022-09-01T17:10:25.682Z,95109.31
2022-09-01T17:13:32.657Z,95121.53
2022-09-01T17:16:30.644Z,95134.56
2022-09-01T17:19:19.141Z,95140.47
2022-09-01T17:22:08.710Z,95149.91
2022-09-01T17:25:01.085Z,95145.19
2022-09-01T17:27:51.163Z,95147.56
2022-09-01T17:30:49.396Z,95132.59
2022-09-01T17:33:53.132Z,95143.22
2022-09-01T17:36:46.600Z,95148.31
2022-09-01T17:39:49.527Z,95166.44
2022-09-01T17:42:58.060Z,95177.84
2022-09-01T17:46:03.413Z,95193.97
2022-09-01T17:48:58.126Z,95212.09
2022-09-01T17:52:08.187Z,95215.25
2022-09-01T17:55:10.292Z,95224.69
2022-09-01T17:58:01.360Z,95261.69
2022-09-01T18:00:59.468Z,95266.38
2022-09-01T18:03:59.251Z,95291.97
2022-09-01T18:07:22.850Z,95320.66
2022-09-01T18:10:13.092Z,95335.59
2022-09-01T18:13:06.279Z,95349.72
2022-09-01T18:15:58.514Z,95350.44
2022-09-01T18:18:53.220Z,95339.78
2022-09-01T18:21:49.272Z,95327.53
2022-09-01T18:24:54.465Z,95295.25
2022-09-01T18:27:43.418Z,95292.09
2022-09-01T18:30:52.155Z,95295.25
2022-09-01T18:33:59.828Z,95303.50
2022-09-01T18:36:58.918Z,95307.03
2022-09-01T18:40:04.290Z,95302.31
2022-09-01T18:43:23.714Z,95289.31
2022-09-01T18:46:28.812Z,95286.56
2022-09-01T18:49:36.987Z,95279.47
2022-09-01T18:52:42.611Z,95281.06
2022-09-01T18:55:59.087Z,95282.63
2022-09-01T18:59:09.112Z,95273.16
2022-09-01T19:02:26.244Z,95286.16
2022-09-01T19:05:19.756Z,95290.47
2022-09-01T19:08:45.275Z,95273.56
2022-09-01T19:11:55.435Z,95279.47
2022-09-01T19:14:41.474Z,95291.31
2022-09-01T19:18:04.512Z,95292.84
2022-09-01T19:20:55.801Z,95297.97
2022-09-01T19:23:50.155Z,95301.09
2022-09-01T19:26:48.515Z,95307.75
2022-09-01T19:29:44.167Z,95311.63
2022-09-01T19:32:31.626Z,95319.44
2022-09-01T19:35:18.274Z,95316.22
2022-09-01T19:38:17.779Z,95315.78
2022-09-01T19:41:18.101Z,95317.63
2022-09-01T19:44:17.947Z,95310.53
2022-09-01T19:47:11.918Z,95297.91
2022-09-01T19:50:19.997Z,95297.88
2022-09-01T19:53:27.910Z,95292.31
2022-09-01T19:56:19.358Z,95297.78
2022-09-01T19:59:25.327Z,95296.13
2022-09-01T20:02:43.669Z,95281.13
2022-09-01T20:05:34.347Z,95300.78
2022-09-01T20:08:33.597Z,95296.00
2022-09-01T20:11:40.222Z,95297.50
2022-09-01T20:14:47.981Z,95298.22
2022-09-01T20:17:57.233Z,95298.91
2022-09-01T20:20:46.421Z,95291.88
2022-09-01T20:23:41.759Z,95287.91
2022-09-01T20:26:36.794Z,95287.91
2022-09-01T20:29:50.345Z,95285.59
2022-09-01T20:33:02.433Z,95301.28
2022-09-01T20:36:33.271Z,95311.53
2022-09-01T20:39:55.284Z,95307.63
2022-09-01T20:43:14.173Z,95313.53
2022-09-01T20:46:00.335Z,95299.78
2022-09-01T20:48:46.277Z,95317.13
2022-09-01T20:51:44.281Z,95313.84
2022-09-01T20:54:36.602Z,95314.66
2022-09-01T20:58:04.177Z,95314.63
2022-09-01T21:01:17.426Z,95318.59
2022-09-01T21:04:37.552Z,95313.19
2022-09-01T21:07:37.343Z,95305.38
2022-09-01T21:10:31.966Z,95316.47
2022-09-01T21:13:21.700Z,95313.34
2022-09-01T21:16:34.973Z,95302.34
2022-09-01T21:20:03.275Z,95293.66
2022-09-01T21:22:50.529Z,95305.91
2022-09-01T21:25:36.611Z,95300.03
2022-09-01T21:28:26.382Z,95303.94
2022-09-01T21:31:12.259Z,95306.31
2022-09-01T21:33:58.444Z,95306.28
2022-09-01T21:36:44.475Z,95294.47
2022-09-01T21:39:30.555Z,95297.22
2022-09-01T21:42:16.480Z,95295.28
2022-09-01T21:45:04.258Z,95294.47
2022-09-01T21:47:51.387Z,95296.88
2022-09-01T21:50:37.251Z,95293.69
2022-09-01T21:53:23.273Z,95307.84
2022-09-01T21:56:09.132Z,95299.19
2022-09-01T21:58:57.851Z,95307.09
2022-09-01T22:01:44.167Z,95296.13
2022-09-01T22:04:30.144Z,95293.78
2022-09-01T22:07:17.097Z,95299.28
2022-09-01T22:10:02.919Z,95296.63
2022-09-01T22:12:50.275Z,95291.91
2022-09-01T22:15:43.103Z,95282.09
2022-09-01T22:18:30.158Z,95286.03
2022-09-01T22:21:17.520Z,95283.69
2022-09-01T22:24:06.106Z,95298.63
2022-09-01T22:26:52.165Z,95281.72
2022-09-01T22:29:38.457Z,95289.97
2022-09-01T22:32:27.736Z,95290.34
2022-09-01T22:35:17.053Z,95303.66
2022-09-01T22:38:02.796Z,95303.25
2022-09-01T22:40:52.328Z,95311.06
2022-09-01T22:43:38.290Z,95309.50
2022-09-01T22:46:24.901Z,95300.84
2022-09-01T22:49:11.303Z,95304.78
2022-09-01T22:51:57.342Z,95308.69
2022-09-01T22:54:43.647Z,95317.31
2022-09-01T22:57:29.853Z,95320.44
2022-09-01T23:00:16.034Z,95322.00
2022-09-01T23:03:02.446Z,95324.38
2022-09-01T23:05:50.106Z,95324.72
2022-09-01T23:08:36.695Z,95314.09
2022-09-01T23:11:23.091Z,95318.78
2022-09-01T23:14:09.839Z,95318.03
2022-09-01T23:16:55.522Z,95315.66
2022-09-01T23:19:41.487Z,95319.69
2022-09-01T23:22:27.197Z,95308.28
2022-09-01T23:25:14.778Z,95310.69
2022-09-01T23:28:01.009Z,95313.44
2022-09-01T23:30:49.941Z,95306.34
2022-09-01T23:33:35.607Z,95299.28
2022-09-01T23:36:23.763Z,95290.66
2022-09-01T23:39:09.797Z,95293.00
2022-09-01T23:41:55.651Z,95292.19
2022-09-01T23:44:41.739Z,95293.00
2022-09-01T23:47:28.358Z,95285.88
2022-09-01T23:50:14.473Z,95275.63
2022-09-01T23:53:00.763Z,95271.72
2022-09-01T23:55:51.399Z,95270.19
2022-09-01T23:58:37.800Z,95263.88
